Time;durP1;ratioP1;P1;durP2;ratioP2;P2;SDS_P1;SDS_P2;PMS_P1;PMS_P2;Temp;Humidity;BMP_temperature;BMP_pressure;BME280_temperature;BME280_humidity;BME280_pressure;Samples;Min_cycle;Max_cycle;Signal;HPM_P1;HPM_P2
2022/09/12 00:01:15;;;;;;;;;;;;;;;;;;5017177;28;20307;-78
2022/09/12 00:03:42;;;;;;;;;;;;;;;;;;5035005;28;20353;-78
2022/09/12 00:06:11;;;;;;;;;;;;;;;;;;5035115;28;19937;-81
2022/09/12 00:08:38;;;;;;;;;;;;;;;;;;5038347;28;20011;-81
2022/09/12 00:11:06;;;;;;;;;;;;;;;;;;5038806;28;19933;-80
2022/09/12 00:13:32;;;;;;;;;;;;;;;;;;5040161;28;19925;-79
2022/09/12 00:15:59;;;;;;;;;;;;;;;;;;5054299;28;19976;-79
2022/09/12 00:18:25;;;;;;;;;;;;;;;;;;5053032;28;19980;-79
2022/09/12 00:20:51;;;;;;;;;;;;;;;;;;5053133;28;19964;-79
2022/09/12 00:23:19;;;;;;;;;;;;;;;;;;5052555;28;19967;-79
2022/09/12 00:25:47;;;;;;;;;;;;;;;;;;5055388;28;19932;-79
2022/09/12 00:28:14;;;;;;;;;;;;;;;;;;5049310;28;20015;-78
2022/09/12 00:30:41;;;;;;;;;;;;;;;;;;5037508;28;20631;-78
2022/09/12 00:33:08;;;;;;;;;;;;;;;;;;5045889;28;19952;-80
2022/09/12 00:35:34;;;;;;;;;;;;;;;;;;5053746;28;19980;-79
2022/09/12 00:38:01;;;;;;;;;;;;;;;;;;5053984;28;19932;-79
2022/09/12 00:40:28;;;;;;;;;;;;;;;;;;5051414;28;19913;-80
2022/09/12 00:42:55;;;;;;;;;;;;;;;;;;5049930;28;20017;-80
2022/09/12 00:45:24;;;;;;;;;;;;;;;;;;5049474;28;19925;-81
2022/09/12 00:47:50;;;;;;;;;;;;;;;;;;5037983;28;19925;-80
2022/09/12 00:50:17;;;;;;;;;;;;;;;;;;5037524;28;19925;-81
2022/09/12 00:52:46;;;;;;;;;;;;;;;;;;5037137;28;19925;-81
2022/09/12 00:55:13;;;;;;;;;;;;;;;;;;5036644;28;20016;-78
2022/09/12 00:57:43;;;;;;;;;;;;;;;;;;5033778;28;19952;-80
2022/09/12 01:00:13;;;;;;;;;;;;;;;;;;5036675;28;19971;-80
2022/09/12 01:02:40;;;;;;;;;;;;;;;;;;5035932;28;19925;-78
2022/09/12 01:05:07;;;;;;;;;;;;;;;;;;5035356;28;20004;-80
2022/09/12 01:07:35;;;;;;;;;;;;;;;;;;5036586;28;19931;-79
2022/09/12 01:10:01;;;;;;;;;;;;;;;;;;5036746;28;19925;-80
2022/09/12 01:12:28;;;;;;;;;;;;;;;;;;5035689;28;19925;-80
2022/09/12 01:14:56;;;;;;;;;;;;;;;;;;5035979;28;20008;-80
2022/09/12 01:17:24;;;;;;;;;;;;;;;;;;5035791;28;19976;-80
2022/09/12 01:20:11;;;;;;;;;;;;;;;;;;5035780;28;20382;-80
2022/09/12 01:22:47;;;;;;;;;;;;;;;;;;5036070;28;19952;-79
2022/09/12 01:25:20;;;;;;;;;;;;;;;;;;5032979;28;19933;-78
2022/09/12 01:27:53;;;;;;;;;;;;;;;;;;5038934;28;20371;-79
2022/09/12 01:30:28;;;;;;;;;;;;;;;;;;5053214;28;19933;-79
2022/09/12 01:33:02;;;;;;;;;;;;;;;;;;5054661;28;19956;-78
2022/09/12 01:35:32;;;;;;;;;;;;;;;;;;5051495;28;19913;-79
2022/09/12 01:38:03;;;;;;;;;;;;;;;;;;5035403;28;19925;-78
2022/09/12 01:40:32;;;;;;;;;;;;;;;;;;5034144;28;20055;-78
2022/09/12 01:43:20;;;;;;;;;;;;;;;;;;5033609;28;19933;-79
2022/09/12 01:45:49;;;;;;;;;;;;;;;;;;5011723;28;19930;-78
2022/09/12 01:48:19;;;;;;;;;;;;;;;;;;5016570;28;19933;-80
2022/09/12 01:50:47;;;;;;;;;;;;;;;;;;5035723;28;19926;-80
2022/09/12 01:53:15;;;;;;;;;;;;;;;;;;5038467;28;19929;-79
2022/09/12 01:55:44;;;;;;;;;;;;;;;;;;5047608;28;19996;-78
2022/09/12 01:58:12;;;;;;;;;;;;;;;;;;5048308;28;19959;-79
2022/09/12 02:00:43;;;;;;;;;;;;;;;;;;5042139;28;19948;-79
2022/09/12 02:03:14;;;;;;;;;;;;;;;;;;5040475;28;19948;-80
2022/09/12 02:05:42;;;;;;;;;;;;;;;;;;5039914;28;20379;-80
2022/09/12 02:08:11;;;;;;;;;;;;;;;;;;5040457;28;20036;-80
2022/09/12 02:10:41;;;;;;;;;;;;;;;;;;5039916;28;20008;-79
2022/09/12 02:13:11;;;;;;;;;;;;;;;;;;5041045;28;19956;-80
2022/09/12 02:15:39;;;;;;;;;;;;;;;;;;5039555;28;19925;-80
2022/09/12 02:18:06;;;;;;;;;;;;;;;;;;5040055;28;19932;-79
2022/09/12 02:20:35;;;;;;;;;;;;;;;;;;5035802;28;19925;-78
2022/09/12 02:23:03;;;;;;;;;;;;;;;;;;5037167;28;19951;-78
2022/09/12 02:25:30;;;;;;;;;;;;;;;;;;5037831;28;19925;-80
2022/09/12 02:27:59;;;;;;;;;;;;;;;;;;5041891;28;19931;-78
2022/09/12 02:30:27;;;;;;;;;;;;;;;;;;5054445;28;19936;-77
2022/09/12 02:32:57;;;;;;;;;;;;;;;;;;5053680;28;19932;-80
2022/09/12 02:35:30;;;;;;;;;;;;;;;;;;5040089;28;19983;-79
2022/09/12 02:37:59;;;;;;;;;;;;;;;;;;5039598;28;19925;-79
2022/09/12 02:40:26;;;;;;;;;;;;;;;;;;5039226;28;19932;-79
2022/09/12 02:42:52;;;;;;;;;;;;;;;;;;5038823;28;19932;-79
2022/09/12 02:45:19;;;;;;;;;;;;;;;;;;5038793;28;19972;-79
2022/09/12 02:47:48;;;;;;;;;;;;;;;;;;5038112;28;19925;-80
2022/09/12 02:50:14;;;;;;;;;;;;;;;;;;5038010;28;19995;-80
2022/09/12 02:52:41;;;;;;;;;;;;;;;;;;5038983;28;19926;-79
2022/09/12 02:55:11;;;;;;;;;;;;;;;;;;5038643;28;19975;-80
2022/09/12 02:57:37;;;;;;;;;;;;;;;;;;5038703;28;19979;-80
2022/09/12 03:00:04;;;;;;;;;;;;;;;;;;5037454;28;20012;-78
2022/09/12 03:02:36;;;;;;;;;;;;;;;;;;5038442;28;19925;-80
2022/09/12 03:05:18;;;;;;;;;;;;;;;;;;5039160;28;20027;-81
2022/09/12 03:07:55;;;;;;;;;;;;;;;;;;5035448;28;20420;-81
2022/09/12 03:10:25;;;;;;;;;;;;;;;;;;5035817;28;20345;-79
2022/09/12 03:12:58;;;;;;;;;;;;;;;;;;5035872;28;19925;-78
2022/09/12 03:15:34;;;;;;;;;;;;;;;;;;5036096;28;20322;-78
2022/09/12 03:18:06;;;;;;;;;;;;;;;;;;5036692;28;19925;-80
2022/09/12 03:20:45;;;;;;;;;;;;;;;;;;5039304;28;19925;-80
2022/09/12 03:23:17;;;;;;;;;;;;;;;;;;5039273;28;20031;-80
2022/09/12 03:25:48;;;;;;;;;;;;;;;;;;5039074;28;19925;-80
2022/09/12 03:28:16;;;;;;;;;;;;;;;;;;5038497;28;19935;-77
2022/09/12 03:30:43;;;;;;;;;;;;;;;;;;5038133;28;19932;-78
2022/09/12 03:33:11;;;;;;;;;;;;;;;;;;5038681;28;20308;-82
2022/09/12 03:35:37;;;;;;;;;;;;;;;;;;5037550;28;20016;-80
2022/09/12 03:38:06;;;;;;;;;;;;;;;;;;5038007;28;20414;-79
2022/09/12 03:40:33;;;;;;;;;;;;;;;;;;5037305;28;19925;-78
2022/09/12 03:43:01;;;;;;;;;;;;;;;;;;5038278;28;19925;-79
2022/09/12 03:45:27;;;;;;;;;;;;;;;;;;5038515;28;19932;-79
2022/09/12 03:47:54;;;;;;;;;;;;;;;;;;5038504;28;20291;-79
2022/09/12 03:50:20;;;;;;;;;;;;;;;;;;5036979;28;20012;-79
2022/09/12 03:52:47;;;;;;;;;;;;;;;;;;5038833;28;19929;-79
2022/09/12 03:55:13;;;;;;;;;;;;;;;;;;5038529;28;20463;-80
2022/09/12 03:57:39;;;;;;;;;;;;;;;;;;5038431;28;19931;-79
2022/09/12 04:00:08;;;;;;;;;;;;;;;;;;5037596;28;19925;-79
2022/09/12 04:02:35;;;;;;;;;;;;;;;;;;5038034;28;19932;-80
2022/09/12 04:05:01;;;;;;;;;;;;;;;;;;5038088;28;19925;-79
2022/09/12 04:07:28;;;;;;;;;;;;;;;;;;5037876;28;20275;-80
2022/09/12 04:09:55;;;;;;;;;;;;;;;;;;5038013;28;20092;-79
2022/09/12 04:12:21;;;;;;;;;;;;;;;;;;5035397;28;19925;-78
2022/09/12 04:14:48;;;;;;;;;;;;;;;;;;5035377;28;19967;-78
2022/09/12 04:17:16;;;;;;;;;;;;;;;;;;5034560;28;19926;-78
2022/09/12 04:19:42;;;;;;;;;;;;;;;;;;5034087;28;19929;-77
2022/09/12 04:22:08;;;;;;;;;;;;;;;;;;5034505;28;19925;-77
2022/09/12 04:24:35;;;;;;;;;;;;;;;;;;5034342;28;19987;-77
2022/09/12 04:27:01;;;;;;;;;;;;;;;;;;5041420;28;19972;-77
2022/09/12 04:29:28;;;;;;;;;;;;;;;;;;5044569;28;19976;-79
2022/09/12 04:31:54;;;;;;;;;;;;;;;;;;5037601;28;20021;-80
2022/09/12 04:34:22;;;;;;;;;;;;;;;;;;5037605;28;19925;-81
2022/09/12 04:36:49;;;;;;;;;;;;;;;;;;5037851;28;19979;-80
2022/09/12 04:39:15;;;;;;;;;;;;;;;;;;5037892;28;19996;-80
2022/09/12 04:41:42;;;;;;;;;;;;;;;;;;5037530;28;19933;-80
2022/09/12 04:44:11;;;;;;;;;;;;;;;;;;5037680;28;19925;-79
2022/09/12 04:46:38;;;;;;;;;;;;;;;;;;5037386;28;19932;-80
2022/09/12 04:49:05;;;;;;;;;;;;;;;;;;5037677;28;20052;-80
2022/09/12 04:51:34;;;;;;;;;;;;;;;;;;5036863;28;19971;-80
2022/09/12 04:54:02;;;;;;;;;;;;;;;;;;5037233;28;19925;-79
2022/09/12 04:56:29;;;;;;;;;;;;;;;;;;5036882;28;19979;-78
2022/09/12 04:58:56;;;;;;;;;;;;;;;;;;5034166;28;19925;-78
2022/09/12 05:01:23;;;;;;;;;;;;;;;;;;5033348;28;19936;-78
2022/09/12 05:03:50;;;;;;;;;;;;;;;;;;5035560;28;19976;-80
2022/09/12 05:06:17;;;;;;;;;;;;;;;;;;5036746;28;19925;-79
2022/09/12 05:08:45;;;;;;;;;;;;;;;;;;5037585;28;19956;-79
2022/09/12 05:11:13;;;;;;;;;;;;;;;;;;5036842;28;19960;-79
2022/09/12 05:13:39;;;;;;;;;;;;;;;;;;5037199;28;20462;-79
2022/09/12 05:16:06;;;;;;;;;;;;;;;;;;5035643;28;19967;-78
2022/09/12 05:18:33;;;;;;;;;;;;;;;;;;5036466;28;20372;-80
2022/09/12 05:21:01;;;;;;;;;;;;;;;;;;5039542;28;19925;-78
2022/09/12 05:23:27;;;;;;;;;;;;;;;;;;5049764;28;19929;-79
2022/09/12 05:25:56;;;;;;;;;;;;;;;;;;5046155;28;19929;-80
2022/09/12 05:28:23;;;;;;;;;;;;;;;;;;5048061;28;19984;-79
2022/09/12 05:30:59;;;;;;;;;;;;;;;;;;5039170;28;19984;-80
2022/09/12 05:33:25;;;;;;;;;;;;;;;;;;5038135;28;19993;-80
2022/09/12 05:35:52;;;;;;;;;;;;;;;;;;5038166;28;20006;-79
2022/09/12 05:38:18;;;;;;;;;;;;;;;;;;5046212;23;20016;-75
2022/09/12 05:40:45;;;;;;;;;;;;;;;;;;5043324;28;20015;-76
2022/09/12 05:43:13;;;;;;;;;;;;;;;;;;5052084;28;19925;-76
2022/09/12 05:45:40;;;;;;;;;;;;;;;;;;5052527;28;19928;-76
2022/09/12 05:48:07;;;;;;;;;;;;;;;;;;5047460;28;20303;-76
2022/09/12 05:50:34;;;;;;;;;;;;;;;;;;5031809;28;19925;-76
2022/09/12 05:53:00;;;;;;;;;;;;;;;;;;5032130;28;19925;-77
2022/09/12 05:55:26;;;;;;;;;;;;;;;;;;5032034;28;20019;-77
2022/09/12 05:57:53;;;;;;;;;;;;;;;;;;5031558;28;20414;-75
2022/09/12 06:00:21;;;;;;;;;;;;;;;;;;5031730;28;20407;-76
2022/09/12 06:02:51;;;;;;;;;;;;;;;;;;5031689;28;20290;-77
2022/09/12 06:05:18;;;;;;;;;;;;;;;;;;5031677;28;20004;-77
2022/09/12 06:07:45;;;;;;;;;;;;;;;;;;5031666;28;19925;-76
2022/09/12 06:10:12;;;;;;;;;;;;;;;;;;5030995;28;19925;-76
2022/09/12 06:12:38;;;;;;;;;;;;;;;;;;5032421;28;19931;-77
2022/09/12 06:15:06;;;;;;;;;;;;;;;;;;5035974;28;20383;-77
2022/09/12 06:17:34;;;;;;;;;;;;;;;;;;5034304;28;19925;-77
2022/09/12 06:20:01;;;;;;;;;;;;;;;;;;5036565;28;20004;-78
2022/09/12 06:22:27;;;;;;;;;;;;;;;;;;5032704;28;20024;-76
2022/09/12 06:24:53;;;;;;;;;;;;;;;;;;5032214;28;20011;-76
2022/09/12 06:27:20;;;;;;;;;;;;;;;;;;5031966;28;19925;-77
2022/09/12 06:29:46;;;;;;;;;;;;;;;;;;5030945;28;19929;-76
2022/09/12 06:32:13;;;;;;;;;;;;;;;;;;5031593;28;19925;-77
2022/09/12 06:34:41;;;;;;;;;;;;;;;;;;5038255;28;19926;-77
2022/09/12 06:37:07;;;;;;;;;;;;;;;;;;5037334;28;20012;-77
2022/09/12 06:39:35;;;;;;;;;;;;;;;;;;5037555;28;19925;-77
2022/09/12 06:42:02;;;;;;;;;;;;;;;;;;5038067;28;19971;-77
2022/09/12 06:44:28;;;;;;;;;;;;;;;;;;5039225;28;19925;-76
2022/09/12 06:46:55;;;;;;;;;;;;;;;;;;5042617;28;20015;-77
2022/09/12 06:49:21;;;;;;;;;;;;;;;;;;5043875;28;19928;-77
2022/09/12 06:51:49;;;;;;;;;;;;;;;;;;5045293;28;19925;-77
2022/09/12 06:54:16;;;;;;;;;;;;;;;;;;5037628;28;20015;-77
2022/09/12 06:56:43;;;;;;;;;;;;;;;;;;5036554;28;19931;-77
2022/09/12 06:59:09;;;;;;;;;;;;;;;;;;5035093;28;20354;-78
2022/09/12 07:01:36;;;;;;;;;;;;;;;;;;5041815;28;19968;-79
2022/09/12 07:04:04;;;;;;;;;;;;;;;;;;5039769;28;19925;-79
2022/09/12 07:06:31;;;;;;;;;;;;;;;;;;5035741;28;19933;-79
2022/09/12 07:08:59;;;;;;;;;;;;;;;;;;5039640;28;19929;-77
2022/09/12 07:11:27;;;;;;;;;;;;;;;;;;5040239;28;19925;-78
2022/09/12 07:13:54;;;;;;;;;;;;;;;;;;5039535;28;20007;-79
2022/09/12 07:16:21;;;;;;;;;;;;;;;;;;5038580;28;20016;-78
2022/09/12 07:18:50;;;;;;;;;;;;;;;;;;5042188;28;19948;-78
2022/09/12 07:21:16;;;;;;;;;;;;;;;;;;5043123;28;20419;-78
2022/09/12 07:23:44;;;;;;;;;;;;;;;;;;5043293;28;20012;-77
2022/09/12 07:26:12;;;;;;;;;;;;;;;;;;5044414;28;19925;-78
2022/09/12 07:28:39;;;;;;;;;;;;;;;;;;5041073;28;20435;-78
2022/09/12 07:31:06;;;;;;;;;;;;;;;;;;5041497;28;20024;-77
2022/09/12 07:33:33;;;;;;;;;;;;;;;;;;5042016;28;20423;-77
2022/09/12 07:36:00;;;;;;;;;;;;;;;;;;5044504;28;20020;-77
2022/09/12 07:38:27;;;;;;;;;;;;;;;;;;5040348;28;19952;-77
2022/09/12 07:40:53;;;;;;;;;;;;;;;;;;5039944;28;19925;-79
2022/09/12 07:43:21;;;;;;;;;;;;;;;;;;5036937;28;19968;-79
2022/09/12 07:45:48;;;;;;;;;;;;;;;;;;5035835;28;19936;-78
2022/09/12 07:48:15;;;;;;;;;;;;;;;;;;5034204;28;19976;-78
2022/09/12 07:50:41;;;;;;;;;;;;;;;;;;5034316;28;19925;-78
2022/09/12 07:53:08;;;;;;;;;;;;;;;;;;5035873;28;20457;-79
2022/09/12 07:55:35;;;;;;;;;;;;;;;;;;5035705;28;19925;-78
2022/09/12 07:58:02;;;;;;;;;;;;;;;;;;5034748;28;19996;-80
2022/09/12 08:00:34;;;;;;;;;;;;;;;;;;5034629;28;19929;-79
2022/09/12 08:03:01;;;;;;;;;;;;;;;;;;5036131;28;19925;-79
2022/09/12 08:05:28;;;;;;;;;;;;;;;;;;5029769;28;19932;-82
2022/09/12 08:07:55;;;;;;;;;;;;;;;;;;5017956;28;19929;-79
2022/09/12 08:10:21;;;;;;;;;;;;;;;;;;5025494;28;20021;-79
2022/09/12 08:12:49;;;;;;;;;;;;;;;;;;5039007;28;19936;-78
2022/09/12 08:15:16;;;;;;;;;;;;;;;;;;5034354;28;20015;-78
2022/09/12 08:17:44;;;;;;;;;;;;;;;;;;5035056;28;19925;-81
2022/09/12 08:20:11;;;;;;;;;;;;;;;;;;5037503;28;19964;-78
2022/09/12 08:22:38;;;;;;;;;;;;;;;;;;5034956;28;19932;-80
2022/09/12 08:25:05;;;;;;;;;;;;;;;;;;5030969;28;19971;-77
2022/09/12 08:27:31;;;;;;;;;;;;;;;;;;5021632;28;19964;-76
2022/09/12 08:29:58;;;;;;;;;;;;;;;;;;5034438;28;19993;-77
2022/09/12 08:32:24;;;;;;;;;;;;;;;;;;5035451;28;19960;-78
2022/09/12 08:34:52;;;;;;;;;;;;;;;;;;5033269;28;19925;-78
2022/09/12 08:37:19;;;;;;;;;;;;;;;;;;5031742;28;19929;-79
2022/09/12 08:39:46;;;;;;;;;;;;;;;;;;5028603;28;19964;-78
2022/09/12 08:42:21;;;;;;;;;;;;;;;;;;5030777;28;20000;-78
2022/09/12 08:44:58;;;;;;;;;;;;;;;;;;5025137;28;19933;-77
2022/09/12 08:47:27;;;;;;;;;;;;;;;;;;5031212;28;20457;-77
2022/09/12 08:49:57;;;;;;;;;;;;;;;;;;5029844;28;19925;-78
2022/09/12 08:52:27;;;;;;;;;;;;;;;;;;5030175;28;19936;-77
2022/09/12 08:54:55;;;;;;;;;;;;;;;;;;5030146;28;19929;-76
2022/09/12 08:57:21;;;;;;;;;;;;;;;;;;5030352;28;20012;-77
2022/09/12 08:59:50;;;;;;;;;;;;;;;;;;5030076;28;19925;-78
2022/09/12 09:02:30;;;;;;;;;;;;;;;;;;5029927;28;19925;-77
2022/09/12 09:05:03;;;;;;;;;;;;;;;;;;5030895;28;19925;-77
2022/09/12 09:07:41;;;;;;;;;;;;;;;;;;5030908;28;19933;-77
2022/09/12 09:10:12;;;;;;;;;;;;;;;;;;5027683;28;19929;-77
2022/09/12 09:12:45;;;;;;;;;;;;;;;;;;5031097;28;19936;-77
2022/09/12 09:15:23;;;;;;;;;;;;;;;;;;5031069;28;19925;-77
2022/09/12 09:17:52;;;;;;;;;;;;;;;;;;5030029;28;19960;-77
2022/09/12 09:20:27;;;;;;;;;;;;;;;;;;5029835;28;19936;-77
2022/09/12 09:22:56;;;;;;;;;;;;;;;;;;5032548;28;19940;-77
2022/09/12 09:25:24;;;;;;;;;;;;;;;;;;5053613;28;19955;-76
2022/09/12 09:27:53;;;;;;;;;;;;;;;;;;5051065;28;19925;-77
2022/09/12 09:30:20;;;;;;;;;;;;;;;;;;5044913;28;19952;-77
2022/09/12 09:32:49;;;;;;;;;;;;;;;;;;5030780;28;19931;-77
2022/09/12 09:35:18;;;;;;;;;;;;;;;;;;5033055;28;19925;-77
2022/09/12 09:37:56;;;;;;;;;;;;;;;;;;5035206;28;19928;-78
2022/09/12 09:40:27;;;;;;;;;;;;;;;;;;5022921;28;19931;-77
2022/09/12 09:42:57;;;;;;;;;;;;;;;;;;5034531;28;19936;-78
2022/09/12 09:45:24;;;;;;;;;;;;;;;;;;5034641;28;19935;-77
2022/09/12 09:47:53;;;;;;;;;;;;;;;;;;5034458;28;20395;-77
2022/09/12 09:50:19;;;;;;;;;;;;;;;;;;5034001;28;19929;-77
2022/09/12 09:52:47;;;;;;;;;;;;;;;;;;5035900;28;19960;-78
2022/09/12 09:55:17;;;;;;;;;;;;;;;;;;5033213;28;20019;-78
2022/09/12 09:57:45;;;;;;;;;;;;;;;;;;5029580;28;20020;-77
2022/09/12 10:00:24;;;;;;;;;;;;;;;;;;5033841;28;20290;-77
2022/09/12 10:03:01;;;;;;;;;;;;;;;;;;5046721;28;19943;-77
2022/09/12 10:05:28;;;;;;;;;;;;;;;;;;5043797;28;19925;-78
2022/09/12 10:07:55;;;;;;;;;;;;;;;;;;5044050;28;19936;-78
2022/09/12 10:10:22;;;;;;;;;;;;;;;;;;5034301;28;19925;-78
2022/09/12 10:12:49;;;;;;;;;;;;;;;;;;5013685;28;20017;-78
2022/09/12 10:15:17;;;;;;;;;;;;;;;;;;5030297;28;20004;-78
2022/09/12 10:17:45;;;;;;;;;;;;;;;;;;5033489;28;19933;-78
2022/09/12 10:20:26;;;;;;;;;;;;;;;;;;5040495;28;19925;-78
2022/09/12 10:22:52;;;;;;;;;;;;;;;;;;5040735;28;20200;-78
2022/09/12 10:25:22;;;;;;;;;;;;;;;;;;5039208;28;19925;-78
2022/09/12 10:27:54;;;;;;;;;;;;;;;;;;5035983;28;19926;-78
2022/09/12 10:30:23;;;;;;;;;;;;;;;;;;5028567;28;20008;-78
2022/09/12 10:32:50;;;;;;;;;;;;;;;;;;5035521;28;20047;-78
2022/09/12 10:35:18;;;;;;;;;;;;;;;;;;5034536;28;19968;-77
2022/09/12 10:37:50;;;;;;;;;;;;;;;;;;5036560;28;19960;-81
2022/09/12 10:40:21;;;;;;;;;;;;;;;;;;5035776;28;19932;-76
2022/09/12 10:42:49;;;;;;;;;;;;;;;;;;5033486;28;20371;-76
2022/09/12 10:45:23;;;;;;;;;;;;;;;;;;5035476;28;19968;-78
2022/09/12 10:47:49;;;;;;;;;;;;;;;;;;5035723;28;20343;-77
2022/09/12 10:50:19;;;;;;;;;;;;;;;;;;5035093;28;20036;-76
2022/09/12 10:52:46;;;;;;;;;;;;;;;;;;5036527;28;19925;-77
2022/09/12 10:55:14;;;;;;;;;;;;;;;;;;5034708;28;19928;-78
2022/09/12 10:57:56;;;;;;;;;;;;;;;;;;5033860;28;20023;-77
2022/09/12 11:00:29;;;;;;;;;;;;;;;;;;5037204;28;19996;-77
2022/09/12 11:03:02;;;;;;;;;;;;;;;;;;5033495;28;19925;-81
2022/09/12 11:05:41;;;;;;;;;;;;;;;;;;5036859;28;20430;-78
2022/09/12 11:08:16;;;;;;;;;;;;;;;;;;5037518;28;20012;-80
2022/09/12 11:10:48;;;;;;;;;;;;;;;;;;5040378;28;19936;-77
2022/09/12 11:13:21;;;;;;;;;;;;;;;;;;5038651;28;19925;-77
2022/09/12 11:15:56;;;;;;;;;;;;;;;;;;5033663;28;19925;-77
2022/09/12 11:18:30;;;;;;;;;;;;;;;;;;5033525;28;20410;-77
2022/09/12 11:21:02;;;;;;;;;;;;;;;;;;5048049;28;19983;-77
2022/09/12 11:23:35;;;;;;;;;;;;;;;;;;5051597;28;19956;-77
2022/09/12 11:26:06;;;;;;;;;;;;;;;;;;5041776;28;19925;-77
2022/09/12 11:28:37;;;;;;;;;;;;;;;;;;5032423;28;19960;-78
2022/09/12 11:31:18;;;;;;;;;;;;;;;;;;5024112;28;20391;-79
2022/09/12 11:33:45;;;;;;;;;;;;;;;;;;5030514;28;19925;-78
2022/09/12 11:36:20;;;;;;;;;;;;;;;;;;5025239;28;19925;-77
2022/09/12 11:39:01;;;;;;;;;;;;;;;;;;5024004;28;19930;-78
2022/09/12 11:41:30;;;;;;;;;;;;;;;;;;5028737;28;20015;-77
2022/09/12 11:43:58;;;;;;;;;;;;;;;;;;5015586;28;20347;-77
2022/09/12 11:46:29;;;;;;;;;;;;;;;;;;5027385;28;19932;-77
2022/09/12 11:48:58;;;;;;;;;;;;;;;;;;5033274;28;19965;-76
2022/09/12 11:51:26;;;;;;;;;;;;;;;;;;5038667;28;19925;-79
2022/09/12 11:54:02;;;;;;;;;;;;;;;;;;5021382;28;19925;-78
2022/09/12 11:56:28;;;;;;;;;;;;;;;;;;5033852;28;19996;-79
2022/09/12 11:58:58;;;;;;;;;;;;;;;;;;5028315;28;19925;-78
2022/09/12 12:01:28;;;;;;;;;;;;;;;;;;5029289;28;20630;-78
2022/09/12 12:03:56;;;;;;;;;;;;;;;;;;5033269;28;19948;-78
2022/09/12 12:06:26;;;;;;;;;;;;;;;;;;5027271;28;19925;-76
2022/09/12 12:08:53;;;;;;;;;;;;;;;;;;5025086;28;20016;-77
2022/09/12 12:11:27;;;;;;;;;;;;;;;;;;5035899;28;20604;-77
2022/09/12 12:13:56;;;;;;;;;;;;;;;;;;5039373;28;19932;-79
2022/09/12 12:16:24;;;;;;;;;;;;;;;;;;5037079;28;20019;-77
2022/09/12 12:18:55;;;;;;;;;;;;;;;;;;5037495;28;19992;-78
2022/09/12 12:21:32;;;;;;;;;;;;;;;;;;5038933;28;19925;-77
2022/09/12 12:24:03;;;;;;;;;;;;;;;;;;5039122;28;20435;-77
2022/09/12 12:26:43;;;;;;;;;;;;;;;;;;5020778;28;19937;-77
2022/09/12 12:29:11;;;;;;;;;;;;;;;;;;5031981;28;20463;-77
2022/09/12 12:32:12;;;;;;;;;;;;;;;;;;5029451;28;20406;-78
2022/09/12 12:34:41;;;;;;;;;;;;;;;;;;5030387;28;19936;-77
2022/09/12 12:37:22;;;;;;;;;;;;;;;;;;5029853;28;19979;-77
2022/09/12 12:39:59;;;;;;;;;;;;;;;;;;5025799;28;19934;-77
2022/09/12 12:42:46;;;;;;;;;;;;;;;;;;5026334;28;20011;-77
2022/09/12 12:45:28;;;;;;;;;;;;;;;;;;5025974;28;19925;-78
2022/09/12 12:47:56;;;;;;;;;;;;;;;;;;5009811;28;19961;-77
2022/09/12 12:50:25;;;;;;;;;;;;;;;;;;5016965;28;20198;-77
2022/09/12 12:52:53;;;;;;;;;;;;;;;;;;5030513;28;19925;-77
2022/09/12 12:55:25;;;;;;;;;;;;;;;;;;5030617;28;19933;-77
2022/09/12 12:57:52;;;;;;;;;;;;;;;;;;5030643;28;19952;-77
2022/09/12 13:00:28;;;;;;;;;;;;;;;;;;5030519;28;20428;-77
2022/09/12 13:02:57;;;;;;;;;;;;;;;;;;5030900;28;19979;-77
2022/09/12 13:05:26;;;;;;;;;;;;;;;;;;5030590;28;19925;-77
2022/09/12 13:07:54;;;;;;;;;;;;;;;;;;5030601;28;20296;-77
2022/09/12 13:10:22;;;;;;;;;;;;;;;;;;5031065;28;19964;-77
2022/09/12 13:12:49;;;;;;;;;;;;;;;;;;5030970;28;19925;-77
2022/09/12 13:15:34;;;;;;;;;;;;;;;;;;5030919;28;19968;-77
2022/09/12 13:18:01;;;;;;;;;;;;;;;;;;5031002;28;19925;-77
2022/09/12 13:20:31;;;;;;;;;;;;;;;;;;5031024;28;19925;-77
2022/09/12 13:22:59;;;;;;;;;;;;;;;;;;5030932;28;19965;-76
2022/09/12 13:25:27;;;;;;;;;;;;;;;;;;5030794;28;19925;-77
2022/09/12 13:27:58;;;;;;;;;;;;;;;;;;5041046;28;19929;-76
2022/09/12 13:30:25;;;;;;;;;;;;;;;;;;5041875;28;20475;-76
2022/09/12 13:32:52;;;;;;;;;;;;;;;;;;5015389;28;19929;-77
2022/09/12 13:35:22;;;;;;;;;;;;;;;;;;5014874;28;20032;-77
2022/09/12 13:37:55;;;;;;;;;;;;;;;;;;5026508;28;19931;-81
2022/09/12 13:40:28;;;;;;;;;;;;;;;;;;5034378;28;19991;-81
2022/09/12 13:43:07;;;;;;;;;;;;;;;;;;5035472;28;19925;-79
2022/09/12 13:45:36;;;;;;;;;;;;;;;;;;5032830;28;19925;-77
2022/09/12 13:48:03;;;;;;;;;;;;;;;;;;5030113;28;20311;-76
2022/09/12 13:50:33;;;;;;;;;;;;;;;;;;5030000;28;19931;-77
2022/09/12 13:53:02;;;;;;;;;;;;;;;;;;5030503;28;19925;-76
2022/09/12 13:55:30;;;;;;;;;;;;;;;;;;5029647;28;19930;-76
2022/09/12 13:57:58;;;;;;;;;;;;;;;;;;5031902;28;19935;-77
2022/09/12 14:00:25;;;;;;;;;;;;;;;;;;5029614;28;20457;-76
2022/09/12 14:05:06;;;;;;;;;;;;;;;;;;5029725;28;19929;-76
2022/09/12 14:05:39;;;;;;;;;;;;;;;;;;5024730;28;19987;-75
2022/09/12 14:08:08;;;;;;;;;;;;;;;;;;5020692;28;20439;-76
2022/09/12 14:10:36;;;;;;;;;;;;;;;;;;5017288;28;19932;-76
2022/09/12 14:13:10;;;;;;;;;;;;;;;;;;5022936;28;19983;-77
2022/09/12 14:15:37;;;;;;;;;;;;;;;;;;5021938;28;19929;-77
2022/09/12 14:18:05;;;;;;;;;;;;;;;;;;5030133;28;20338;-76
2022/09/12 14:20:35;;;;;;;;;;;;;;;;;;5029367;28;19929;-75
2022/09/12 14:23:02;;;;;;;;;;;;;;;;;;5029322;28;19930;-75
2022/09/12 14:25:36;;;;;;;;;;;;;;;;;;5012572;28;19926;-76
2022/09/12 14:28:03;;;;;;;;;;;;;;;;;;5029611;28;20281;-76
2022/09/12 14:30:32;;;;;;;;;;;;;;;;;;5029737;28;19925;-77
2022/09/12 14:33:06;;;;;;;;;;;;;;;;;;5029855;28;19986;-77
2022/09/12 14:35:32;;;;;;;;;;;;;;;;;;5029353;28;19939;-76
2022/09/12 14:38:06;;;;;;;;;;;;;;;;;;5030088;28;20607;-76
2022/09/12 14:40:40;;;;;;;;;;;;;;;;;;5029830;28;19979;-76
2022/09/12 14:43:16;;;;;;;;;;;;;;;;;;5024216;28;19986;-76
2022/09/12 14:45:43;;;;;;;;;;;;;;;;;;5027849;28;19940;-75
2022/09/12 14:48:17;;;;;;;;;;;;;;;;;;5015412;28;19926;-76
2022/09/12 14:50:44;;;;;;;;;;;;;;;;;;5024710;28;19935;-75
2022/09/12 14:53:21;;;;;;;;;;;;;;;;;;5029536;28;19933;-75
2022/09/12 14:55:53;;;;;;;;;;;;;;;;;;5033401;28;19929;-75
2022/09/12 14:58:24;;;;;;;;;;;;;;;;;;5031558;28;19925;-76
2022/09/12 15:00:58;;;;;;;;;;;;;;;;;;5018563;28;19929;-76
2022/09/12 15:03:27;;;;;;;;;;;;;;;;;;5026014;28;19929;-76
2022/09/12 15:05:54;;;;;;;;;;;;;;;;;;5022587;28;19925;-76
2022/09/12 15:08:20;;;;;;;;;;;;;;;;;;5023490;28;20595;-76
2022/09/12 15:10:47;;;;;;;;;;;;;;;;;;5025562;28;20016;-76
2022/09/12 15:13:18;;;;;;;;;;;;;;;;;;5024675;28;20339;-76
2022/09/12 15:15:45;;;;;;;;;;;;;;;;;;5027174;28;20012;-75
2022/09/12 15:18:12;;;;;;;;;;;;;;;;;;5023605;28;19975;-76
2022/09/12 15:20:40;;;;;;;;;;;;;;;;;;5031130;28;20012;-76
2022/09/12 15:23:07;;;;;;;;;;;;;;;;;;5024572;28;19932;-76
2022/09/12 15:25:34;;;;;;;;;;;;;;;;;;5024592;28;20012;-76
2022/09/12 15:28:00;;;;;;;;;;;;;;;;;;5019762;28;20019;-75
2022/09/12 15:30:28;;;;;;;;;;;;;;;;;;5031478;28;19987;-78
2022/09/12 15:32:55;;;;;;;;;;;;;;;;;;5042914;28;19936;-78
2022/09/12 15:35:22;;;;;;;;;;;;;;;;;;5034199;28;20020;-76
2022/09/12 15:37:48;;;;;;;;;;;;;;;;;;5041419;28;19925;-75
2022/09/12 15:40:15;;;;;;;;;;;;;;;;;;5034214;28;20287;-77
2022/09/12 15:42:42;;;;;;;;;;;;;;;;;;5033077;28;19925;-76
2022/09/12 15:45:16;;;;;;;;;;;;;;;;;;5031132;28;19937;-76
2022/09/12 15:47:44;;;;;;;;;;;;;;;;;;5032861;28;19929;-78
2022/09/12 15:50:10;;;;;;;;;;;;;;;;;;5032515;28;19925;-77
2022/09/12 15:52:38;;;;;;;;;;;;;;;;;;5032730;28;19925;-75
2022/09/12 15:55:05;;;;;;;;;;;;;;;;;;5032252;28;19983;-75
2022/09/12 15:57:31;;;;;;;;;;;;;;;;;;5031793;28;20004;-75
2022/09/12 15:59:58;;;;;;;;;;;;;;;;;;5031556;28;20710;-75
2022/09/12 16:02:25;;;;;;;;;;;;;;;;;;5034667;28;20315;-77
2022/09/12 16:04:54;;;;;;;;;;;;;;;;;;5039112;28;19932;-76
2022/09/12 16:07:21;;;;;;;;;;;;;;;;;;5040922;28;20012;-76
2022/09/12 16:09:47;;;;;;;;;;;;;;;;;;5040969;28;20327;-76
2022/09/12 16:12:14;;;;;;;;;;;;;;;;;;5040975;28;19925;-76
2022/09/12 16:14:40;;;;;;;;;;;;;;;;;;5040365;28;19925;-78
2022/09/12 16:17:07;;;;;;;;;;;;;;;;;;5031064;28;19976;-77
2022/09/12 16:19:33;;;;;;;;;;;;;;;;;;5032687;28;19929;-77
2022/09/12 16:22:01;;;;;;;;;;;;;;;;;;5033684;28;20005;-74
2022/09/12 16:24:28;;;;;;;;;;;;;;;;;;5039274;28;19925;-74
2022/09/12 16:26:54;;;;;;;;;;;;;;;;;;5027827;28;20323;-78
2022/09/12 16:29:21;;;;;;;;;;;;;;;;;;5027788;28;20012;-78
2022/09/12 16:31:47;;;;;;;;;;;;;;;;;;5012280;28;19979;-78
2022/09/12 16:34:14;;;;;;;;;;;;;;;;;;5015293;28;19932;-78
2022/09/12 16:36:40;;;;;;;;;;;;;;;;;;5011499;28;20012;-78
2022/09/12 16:39:08;;;;;;;;;;;;;;;;;;5011424;28;20020;-78
2022/09/12 16:41:34;;;;;;;;;;;;;;;;;;5012736;28;20465;-78
2022/09/12 16:44:01;;;;;;;;;;;;;;;;;;5012032;28;20337;-78
2022/09/12 16:46:28;;;;;;;;;;;;;;;;;;5011268;28;20382;-77
2022/09/12 16:48:55;;;;;;;;;;;;;;;;;;5016975;28;20334;-77
2022/09/12 16:51:22;;;;;;;;;;;;;;;;;;5013339;28;20268;-78
2022/09/12 16:53:49;;;;;;;;;;;;;;;;;;5011613;28;19932;-78
2022/09/12 16:56:17;;;;;;;;;;;;;;;;;;5011693;28;19932;-78
2022/09/12 16:58:43;;;;;;;;;;;;;;;;;;5011318;28;20046;-77